createdAt,value
2018-07-02T00:00:49.082Z,18.80
2018-07-02T00:03:17.148Z,18.80
2018-07-02T00:05:56.799Z,18.80
2018-07-02T00:08:24.866Z,18.80
2018-07-02T00:10:52.928Z,18.70
2018-07-02T00:13:20.970Z,18.70
2018-07-02T00:15:49.030Z,18.70
2018-07-02T00:18:17.114Z,18.60
2018-07-02T00:20:45.171Z,18.60
2018-07-02T00:25:41.143Z,18.50
2018-07-02T00:28:09.172Z,18.50
2018-07-02T00:30:37.270Z,18.50
2018-07-02T00:33:05.576Z,18.60
2018-07-02T00:35:33.666Z,18.50
2018-07-02T00:38:01.734Z,18.40
2018-07-02T00:40:29.791Z,18.40
2018-07-02T00:42:57.884Z,18.40
2018-07-02T00:45:25.935Z,18.30
2018-07-02T00:47:54.007Z,18.30
2018-07-02T00:50:22.070Z,18.20
2018-07-02T00:52:50.134Z,18.20
2018-07-02T00:55:18.218Z,18.10
2018-07-02T00:57:46.312Z,18.10
2018-07-02T01:00:15.918Z,18.10
2018-07-02T01:02:44.166Z,18.00
2018-07-02T01:05:19.058Z,18.00
2018-07-02T01:07:47.118Z,18.00
2018-07-02T01:10:15.178Z,18.00
2018-07-02T01:12:43.286Z,17.90
2018-07-02T01:15:11.346Z,17.90
2018-07-02T01:17:39.407Z,17.80
2018-07-02T01:20:07.470Z,17.80
2018-07-02T01:22:35.527Z,17.80
2018-07-02T01:25:03.589Z,17.70
2018-07-02T01:27:33.820Z,17.70
2018-07-02T01:30:02.814Z,17.60
2018-07-02T01:32:30.911Z,17.60
2018-07-02T01:34:59.098Z,17.50
2018-07-02T01:37:27.158Z,17.50
2018-07-02T01:39:55.229Z,17.40
2018-07-02T01:44:51.144Z,17.30
2018-07-02T01:47:19.196Z,17.30
2018-07-02T01:49:47.246Z,17.30
2018-07-02T01:52:15.302Z,17.20
2018-07-02T01:54:43.370Z,17.20
2018-07-02T01:57:11.433Z,17.10
2018-07-02T02:02:07.348Z,17.10
2018-07-02T02:04:35.920Z,17.10
2018-07-02T02:07:04.283Z,17.00
2018-07-02T02:09:32.338Z,17.00
2018-07-02T02:12:00.383Z,16.90
2018-07-02T02:14:28.444Z,16.90
2018-07-02T02:16:56.514Z,16.80
2018-07-02T02:19:24.567Z,16.80
2018-07-02T02:21:52.642Z,16.80
2018-07-02T02:24:20.719Z,16.70
2018-07-02T02:26:48.872Z,16.70
2018-07-02T02:29:16.906Z,16.60
2018-07-02T02:31:44.984Z,16.60
2018-07-02T02:34:13.150Z,16.60
2018-07-02T02:36:41.246Z,16.50
2018-07-02T02:39:09.958Z,16.40
2018-07-02T02:41:38.246Z,16.40
2018-07-02T02:44:06.715Z,16.30
2018-07-02T02:46:34.886Z,16.30
2018-07-02T02:49:02.946Z,16.30
2018-07-02T02:51:31.036Z,16.20
2018-07-02T02:53:59.106Z,16.10
2018-07-02T02:56:27.193Z,16.10
2018-07-02T02:58:55.484Z,16.00
2018-07-02T03:01:23.542Z,16.00
2018-07-02T03:03:51.623Z,15.90
2018-07-02T03:06:19.695Z,15.80
2018-07-02T03:08:47.780Z,15.70
2018-07-02T03:11:15.933Z,15.60
2018-07-02T03:13:44.247Z,15.60
2018-07-02T03:16:12.310Z,15.60
2018-07-02T03:18:40.351Z,15.60
2018-07-02T03:21:08.410Z,15.50
2018-07-02T03:23:36.475Z,15.40
2018-07-02T03:26:04.538Z,15.40
2018-07-02T03:28:32.591Z,15.40
2018-07-02T03:31:00.650Z,15.30
2018-07-02T03:33:28.712Z,15.30
2018-07-02T03:35:56.789Z,15.30
2018-07-02T03:38:24.837Z,15.20
2018-07-02T03:40:52.884Z,15.20
2018-07-02T03:43:20.981Z,15.20
2018-07-02T03:45:49.052Z,15.20
2018-07-02T03:48:17.204Z,15.20
2018-07-02T03:50:45.262Z,15.20
2018-07-02T03:53:13.333Z,15.20
2018-07-02T03:55:41.649Z,15.10
2018-07-02T03:58:09.718Z,15.20
2018-07-02T04:00:37.798Z,15.10
2018-07-02T04:03:05.903Z,15.10
2018-07-02T04:05:33.965Z,15.10
2018-07-02T04:08:02.084Z,15.00
2018-07-02T04:10:30.146Z,15.00
2018-07-02T04:12:58.227Z,15.00
2018-07-02T04:15:26.282Z,15.00
2018-07-02T04:17:54.343Z,14.90
2018-07-02T04:20:22.417Z,14.90
2018-07-02T04:22:51.260Z,14.90
2018-07-02T04:25:19.471Z,15.00
2018-07-02T04:27:47.530Z,15.00
2018-07-02T04:30:15.594Z,15.00
2018-07-02T04:32:43.682Z,15.00
2018-07-02T04:35:11.727Z,15.00
2018-07-02T04:37:39.799Z,15.00
2018-07-02T04:40:07.882Z,15.10
2018-07-02T04:42:35.950Z,15.10
2018-07-02T04:45:04.065Z,15.10
2018-07-02T04:47:32.122Z,15.10
2018-07-02T04:50:00.182Z,15.20
2018-07-02T04:52:28.238Z,15.20
2018-07-02T04:54:56.310Z,15.20
2018-07-02T04:57:24.367Z,15.20
2018-07-02T04:59:52.439Z,15.30
2018-07-02T05:02:21.080Z,15.40
2018-07-02T05:04:49.198Z,15.50
2018-07-02T05:07:17.261Z,15.50
2018-07-02T05:09:45.361Z,15.60
2018-07-02T05:12:13.434Z,15.60
2018-07-02T05:14:42.521Z,15.60
2018-07-02T05:17:10.571Z,15.70
2018-07-02T05:19:38.885Z,15.70
2018-07-02T05:22:07.154Z,15.80
2018-07-02T05:24:35.234Z,15.90
2018-07-02T05:27:03.337Z,16.00
2018-07-02T05:29:31.423Z,16.00
2018-07-02T05:31:59.478Z,16.10
2018-07-02T05:34:27.530Z,16.20
2018-07-02T05:36:55.594Z,16.30
2018-07-02T05:39:23.658Z,16.40
2018-07-02T05:41:52.073Z,16.50
2018-07-02T05:46:47.974Z,16.80
2018-07-02T05:49:16.062Z,16.90
2018-07-02T05:51:44.130Z,17.00
2018-07-02T05:54:12.758Z,17.20
2018-07-02T05:56:40.831Z,17.30
2018-07-02T05:59:08.934Z,17.40
2018-07-02T06:01:37.009Z,17.50
2018-07-02T06:04:05.071Z,17.60
2018-07-02T06:06:33.132Z,17.70
2018-07-02T06:09:01.287Z,17.80
2018-07-02T06:11:29.526Z,17.90
2018-07-02T06:13:57.602Z,18.00
2018-07-02T06:16:25.725Z,18.10
2018-07-02T06:18:53.739Z,18.20
2018-07-02T06:21:21.852Z,18.30
2018-07-02T06:23:49.895Z,18.40
2018-07-02T06:26:17.987Z,18.50
2018-07-02T06:28:46.075Z,18.60
2018-07-02T06:31:14.187Z,18.70
2018-07-02T06:33:42.254Z,18.80
2018-07-02T06:36:10.319Z,19.00
2018-07-02T06:38:38.402Z,19.10
2018-07-02T06:41:06.609Z,19.30
2018-07-02T06:43:34.694Z,19.40
2018-07-02T06:46:02.771Z,19.60
2018-07-02T06:48:30.880Z,19.60
2018-07-02T06:50:58.926Z,19.80
2018-07-02T06:53:27.020Z,19.90
2018-07-02T06:55:55.087Z,20.00
2018-07-02T06:58:23.166Z,20.00
2018-07-02T07:00:51.254Z,20.10
2018-07-02T07:03:19.326Z,20.20
2018-07-02T07:05:47.434Z,20.30
2018-07-02T07:08:15.505Z,20.40
2018-07-02T07:10:43.567Z,20.40
2018-07-02T07:13:11.638Z,20.60
2018-07-02T07:15:39.790Z,20.80
2018-07-02T07:18:07.838Z,21.00
2018-07-02T07:20:35.910Z,21.10
2018-07-02T07:23:04.219Z,21.10
2018-07-02T07:25:32.294Z,21.20
2018-07-02T07:28:04.955Z,21.40
2018-07-02T07:30:33.013Z,21.50
2018-07-02T07:33:01.086Z,21.60
2018-07-02T07:35:29.150Z,21.70
2018-07-02T07:37:57.250Z,21.70
2018-07-02T07:40:25.332Z,21.80
2018-07-02T07:42:53.395Z,21.90
2018-07-02T07:45:22.208Z,22.00
2018-07-02T07:47:50.301Z,22.20
2018-07-02T07:50:18.396Z,22.30
2018-07-02T07:55:14.334Z,22.50
2018-07-02T07:57:42.413Z,22.60
2018-07-02T08:00:10.499Z,22.70
2018-07-02T08:02:38.568Z,22.90
2018-07-02T08:05:06.743Z,23.00
2018-07-02T08:07:34.803Z,23.10
2018-07-02T08:12:30.775Z,23.30
2018-07-02T08:14:58.844Z,23.40
2018-07-02T08:17:26.923Z,23.50
2018-07-02T08:19:55.008Z,23.60
2018-07-02T08:22:23.091Z,23.60
2018-07-02T08:24:51.200Z,23.70
2018-07-02T08:27:19.292Z,23.80
2018-07-02T08:29:47.383Z,23.90
2018-07-02T08:32:15.432Z,24.00
2018-07-02T08:34:43.501Z,24.00
2018-07-02T08:37:11.597Z,24.10
2018-07-02T08:39:39.668Z,24.10
2018-07-02T08:42:07.810Z,24.10
2018-07-02T08:44:35.881Z,24.10
2018-07-02T08:47:03.956Z,24.10
2018-07-02T08:49:32.040Z,24.30
2018-07-02T08:52:00.131Z,24.40
2018-07-02T08:54:28.202Z,24.50
2018-07-02T08:56:57.760Z,24.70
2018-07-02T08:59:25.827Z,24.80
2018-07-02T09:01:53.898Z,24.80
2018-07-02T09:04:22.058Z,24.80
2018-07-02T09:06:50.192Z,24.80
2018-07-02T09:09:18.223Z,24.90
2018-07-02T09:11:46.373Z,24.90
2018-07-02T09:14:14.470Z,24.80
2018-07-02T09:16:42.537Z,24.80
2018-07-02T09:19:10.667Z,24.90
2018-07-02T09:21:38.867Z,25.00
2018-07-02T09:24:06.797Z,25.00
2018-07-02T09:26:34.885Z,25.10
2018-07-02T09:29:02.959Z,25.00
2018-07-02T09:31:31.068Z,25.10
2018-07-02T09:33:59.158Z,25.20
2018-07-02T09:36:27.221Z,25.40
2018-07-02T09:38:55.336Z,25.40
2018-07-02T09:41:24.663Z,25.50
2018-07-02T09:43:52.914Z,25.50
2018-07-02T09:46:20.986Z,25.60
2018-07-02T09:48:49.109Z,25.70
2018-07-02T09:51:17.283Z,25.70
2018-07-02T09:53:45.386Z,25.70
2018-07-02T09:56:13.478Z,25.70
2018-07-02T09:58:41.629Z,25.70
2018-07-02T10:01:09.876Z,25.80
2018-07-02T10:03:37.987Z,26.00
2018-07-02T10:06:07.570Z,26.00
2018-07-02T10:11:03.546Z,26.10
2018-07-02T10:13:31.634Z,26.10
2018-07-02T10:18:27.584Z,26.20
2018-07-02T10:20:59.426Z,26.30
2018-07-02T10:23:27.691Z,26.60
2018-07-02T10:25:55.785Z,26.70
2018-07-02T10:28:24.504Z,26.70
2018-07-02T10:30:52.725Z,26.50
2018-07-02T10:33:20.740Z,26.60
2018-07-02T10:35:48.944Z,26.70
2018-07-02T10:38:28.418Z,26.80
2018-07-02T10:40:57.048Z,27.00
2018-07-02T10:43:26.505Z,27.20
2018-07-02T10:45:54.668Z,27.20
2018-07-02T10:48:22.719Z,27.30
2018-07-02T10:50:50.807Z,27.20
2018-07-02T10:53:18.954Z,27.20
2018-07-02T10:55:47.080Z,27.30
2018-07-02T10:58:15.181Z,27.30
2018-07-02T11:00:43.292Z,27.30
2018-07-02T11:03:11.420Z,27.30
2018-07-02T11:05:39.510Z,27.50
2018-07-02T11:08:07.638Z,27.60
2018-07-02T11:10:36.532Z,27.60
2018-07-02T11:13:11.411Z,27.60
2018-07-02T11:15:40.669Z,27.60
2018-07-02T11:18:10.263Z,27.80
2018-07-02T11:20:39.391Z,27.80
2018-07-02T11:23:07.523Z,27.80
2018-07-02T11:25:36.290Z,27.80
2018-07-02T11:28:04.709Z,27.70
2018-07-02T11:30:32.896Z,27.80
2018-07-02T11:33:01.280Z,27.80
2018-07-02T11:35:29.390Z,27.80
2018-07-02T11:37:57.506Z,27.90
2018-07-02T11:40:25.648Z,28.00
2018-07-02T11:45:21.593Z,27.90
2018-07-02T11:47:49.724Z,28.00
2018-07-02T11:50:17.786Z,28.20
2018-07-02T11:52:45.867Z,28.30
2018-07-02T11:55:13.948Z,28.30
2018-07-02T11:57:42.011Z,28.30
2018-07-02T12:00:10.307Z,28.20
2018-07-02T12:02:38.879Z,28.10
2018-07-02T12:05:07.051Z,28.20
2018-07-02T12:07:35.144Z,28.00
2018-07-02T12:10:04.408Z,28.20
2018-07-02T12:12:33.023Z,28.30
2018-07-02T12:15:01.123Z,28.50
2018-07-02T12:17:29.427Z,28.50
2018-07-02T12:19:57.556Z,28.70
2018-07-02T12:22:25.643Z,28.70
2018-07-02T12:24:53.719Z,28.70
2018-07-02T12:27:21.790Z,28.70
2018-07-02T12:29:49.875Z,28.70
2018-07-02T12:32:18.034Z,28.60
2018-07-02T12:34:46.113Z,28.60
2018-07-02T12:37:14.180Z,28.60
2018-07-02T12:39:42.243Z,28.60
2018-07-02T12:42:10.371Z,28.50
2018-07-02T12:44:38.439Z,28.50
2018-07-02T12:47:06.507Z,28.70
2018-07-02T12:49:34.589Z,28.70
2018-07-02T12:52:02.656Z,28.70
2018-07-02T12:54:30.762Z,28.60
2018-07-02T12:56:58.846Z,28.50
2018-07-02T12:59:26.920Z,28.50
2018-07-02T13:01:55.004Z,28.60
2018-07-02T13:04:23.083Z,28.60
2018-07-02T13:06:51.148Z,28.70
2018-07-02T13:09:19.226Z,28.70
2018-07-02T13:11:47.451Z,28.70
2018-07-02T13:14:15.547Z,28.70
2018-07-02T13:16:43.616Z,28.80
2018-07-02T13:19:11.707Z,28.80
2018-07-02T13:21:39.798Z,28.80
2018-07-02T13:24:07.886Z,28.70
2018-07-02T13:26:35.987Z,28.90
2018-07-02T13:29:04.172Z,28.90
2018-07-02T13:34:00.248Z,29.10
2018-07-02T13:36:28.350Z,29.20
2018-07-02T13:38:56.515Z,29.30
2018-07-02T13:41:24.678Z,29.40
2018-07-02T13:43:52.829Z,29.40
2018-07-02T13:46:20.951Z,29.30
2018-07-02T13:48:49.091Z,29.30
2018-07-02T13:51:17.239Z,29.40
2018-07-02T13:53:46.745Z,29.60
2018-07-02T13:56:14.796Z,29.60
2018-07-02T13:58:42.886Z,29.60
2018-07-02T14:03:38.835Z,29.60
2018-07-02T14:06:07.010Z,29.70
2018-07-02T14:08:35.153Z,29.70
2018-07-02T14:11:03.295Z,29.90
2018-07-02T14:13:31.570Z,30.00
2018-07-02T14:15:59.639Z,30.00
2018-07-02T14:18:27.789Z,30.00
2018-07-02T14:20:56.392Z,30.00
2018-07-02T14:23:24.663Z,30.00
2018-07-02T14:25:52.727Z,30.20
2018-07-02T14:28:21.094Z,30.30
2018-07-02T14:30:49.180Z,30.70
2018-07-02T14:33:17.270Z,30.90
2018-07-02T14:35:45.342Z,30.80
2018-07-02T14:38:13.434Z,30.90
2018-07-02T14:40:41.718Z,31.00
2018-07-02T14:43:09.844Z,31.00
2018-07-02T14:45:38.039Z,31.10
2018-07-02T14:48:05.981Z,31.40
2018-07-02T14:50:34.067Z,31.30
2018-07-02T14:53:02.139Z,31.40
2018-07-02T14:55:30.307Z,31.30
2018-07-02T14:57:58.371Z,31.50
2018-07-02T15:00:26.450Z,31.80
2018-07-02T15:02:54.541Z,31.80
2018-07-02T15:05:22.655Z,31.80
2018-07-02T15:07:51.051Z,32.00
2018-07-02T15:10:19.139Z,32.10
2018-07-02T15:12:47.215Z,32.10
2018-07-02T15:15:15.345Z,32.10
2018-07-02T15:17:43.414Z,32.10
2018-07-02T15:20:12.539Z,32.10
2018-07-02T15:22:40.822Z,32.30
2018-07-02T15:25:08.944Z,32.40
2018-07-02T15:27:37.043Z,32.60
2018-07-02T15:30:05.461Z,32.70
2018-07-02T15:32:33.529Z,32.80
2018-07-02T15:35:01.591Z,32.80
2018-07-02T15:37:29.882Z,32.90
2018-07-02T15:39:58.344Z,33.00
2018-07-02T15:42:26.535Z,33.20
2018-07-02T15:44:56.822Z,33.50
2018-07-02T15:47:25.085Z,33.90
2018-07-02T15:49:53.186Z,34.00
2018-07-02T15:52:21.698Z,34.20
2018-07-02T15:54:51.963Z,34.20
2018-07-02T15:57:20.028Z,34.40
2018-07-02T15:59:48.280Z,34.20
2018-07-02T16:02:16.585Z,34.20
2018-07-02T16:04:44.750Z,34.30
2018-07-02T16:07:12.822Z,34.70
2018-07-02T16:09:41.714Z,34.80
2018-07-02T16:12:09.819Z,34.80
2018-07-02T16:14:39.122Z,34.90
2018-07-02T16:17:07.205Z,35.20
2018-07-02T16:19:35.266Z,35.50
2018-07-02T16:22:03.330Z,35.80
2018-07-02T16:24:31.406Z,35.60
2018-07-02T16:26:59.475Z,35.50
2018-07-02T16:29:27.573Z,35.40
2018-07-02T16:31:55.700Z,35.30
2018-07-02T16:34:24.080Z,35.70
2018-07-02T16:36:53.058Z,35.60
2018-07-02T16:39:21.122Z,35.80
2018-07-02T16:41:49.376Z,36.10
2018-07-02T16:44:17.453Z,36.40
2018-07-02T16:46:45.601Z,36.40
2018-07-02T16:49:13.682Z,36.80
2018-07-02T16:51:41.774Z,36.70
2018-07-02T16:54:09.870Z,36.70
2018-07-02T16:56:39.340Z,36.70
2018-07-02T16:59:07.550Z,36.60
2018-07-02T17:01:36.739Z,36.40
2018-07-02T17:04:11.605Z,36.80
2018-07-02T17:06:39.761Z,36.80
2018-07-02T17:09:09.797Z,35.20
2018-07-02T17:11:38.450Z,33.70
2018-07-02T17:14:06.803Z,32.40
2018-07-02T17:16:34.894Z,31.40
2018-07-02T17:19:03.011Z,30.70
2018-07-02T17:21:31.568Z,30.00
2018-07-02T17:23:59.643Z,29.50
2018-07-02T17:26:27.794Z,29.00
2018-07-02T17:28:55.901Z,28.60
2018-07-02T17:31:24.603Z,28.30
2018-07-02T17:33:52.666Z,28.10
2018-07-02T17:36:20.758Z,27.90
2018-07-02T17:38:48.879Z,27.80
2018-07-02T17:41:17.072Z,27.70
2018-07-02T17:43:45.135Z,27.70
2018-07-02T17:46:13.290Z,27.70
2018-07-02T17:48:41.398Z,27.60
2018-07-02T17:51:09.958Z,27.50
2018-07-02T17:53:39.090Z,27.30
2018-07-02T17:56:07.175Z,27.10
2018-07-02T17:58:35.263Z,27.10
2018-07-02T18:01:04.365Z,27.00
2018-07-02T18:03:32.394Z,26.90
2018-07-02T18:06:00.515Z,26.90
2018-07-02T18:08:28.613Z,26.80
2018-07-02T18:10:56.723Z,26.70
2018-07-02T18:13:24.819Z,26.60
2018-07-02T18:15:52.925Z,26.50
2018-07-02T18:18:21.011Z,26.40
2018-07-02T18:20:49.106Z,26.40
2018-07-02T18:23:17.188Z,26.40
2018-07-02T18:25:45.256Z,26.30
2018-07-02T18:28:13.322Z,26.30
2018-07-02T18:30:41.424Z,26.20
2018-07-02T18:33:09.532Z,26.10
2018-07-02T18:35:37.607Z,26.10
2018-07-02T18:38:05.794Z,26.00
2018-07-02T18:40:33.831Z,25.90
2018-07-02T18:43:01.972Z,25.90
2018-07-02T18:45:30.063Z,25.80
2018-07-02T18:47:58.270Z,25.70
2018-07-02T18:50:26.350Z,25.70
2018-07-02T18:52:54.426Z,25.70
2018-07-02T18:55:22.566Z,25.60
2018-07-02T18:57:50.598Z,25.50
2018-07-02T19:00:18.707Z,25.40
2018-07-02T19:02:46.800Z,25.30
2018-07-02T19:05:14.874Z,25.10
2018-07-02T19:07:42.986Z,25.10
2018-07-02T19:10:11.394Z,25.00
2018-07-02T19:12:39.750Z,24.90
2018-07-02T19:15:08.049Z,24.80
2018-07-02T19:17:36.279Z,24.70
2018-07-02T19:20:04.382Z,24.70
2018-07-02T19:22:32.483Z,24.60
2018-07-02T19:25:00.731Z,24.60
2018-07-02T19:27:28.795Z,24.50
2018-07-02T19:29:56.901Z,24.50
2018-07-02T19:32:25.022Z,24.50
2018-07-02T19:34:53.110Z,24.40
2018-07-02T19:37:21.187Z,24.30
2018-07-02T19:39:49.267Z,24.20
2018-07-02T19:44:45.171Z,24.00
2018-07-02T19:47:13.284Z,23.90
2018-07-02T19:49:41.353Z,23.80
2018-07-02T19:52:09.458Z,23.80
2018-07-02T19:54:40.863Z,23.70
2018-07-02T19:57:08.937Z,23.70
2018-07-02T19:59:36.983Z,23.60
2018-07-02T20:02:05.168Z,23.50
2018-07-02T20:04:36.869Z,23.40
2018-07-02T20:07:05.067Z,23.30
2018-07-02T20:09:33.025Z,23.20
2018-07-02T20:12:01.099Z,23.10
2018-07-02T20:14:29.154Z,23.10
2018-07-02T20:16:57.242Z,23.00
2018-07-02T20:19:25.343Z,23.00
2018-07-02T20:21:53.490Z,23.00
2018-07-02T20:24:21.554Z,22.90
2018-07-02T20:26:49.628Z,22.90
2018-07-02T20:29:17.711Z,22.80
2018-07-02T20:31:46.044Z,22.70
2018-07-02T20:34:14.382Z,22.50
2018-07-02T20:36:42.472Z,22.30
2018-07-02T20:39:11.338Z,22.20
2018-07-02T20:41:39.442Z,22.10
2018-07-02T20:44:07.686Z,22.00
2018-07-02T20:46:35.853Z,21.90
2018-07-02T20:49:04.674Z,21.80
2018-07-02T20:51:33.047Z,21.70
2018-07-02T20:54:01.315Z,21.50
2018-07-02T20:56:29.384Z,21.40
2018-07-02T20:58:57.482Z,21.30
2018-07-02T21:01:25.567Z,21.30
2018-07-02T21:03:53.803Z,21.30
2018-07-02T21:06:22.115Z,21.10
2018-07-02T21:08:50.198Z,21.00
2018-07-02T21:11:18.627Z,21.00
2018-07-02T21:13:47.033Z,21.00
2018-07-02T21:16:15.194Z,20.90
2018-07-02T21:18:43.788Z,20.80
2018-07-02T21:21:11.861Z,20.70
2018-07-02T21:23:39.992Z,20.70
2018-07-02T21:26:08.140Z,20.60
2018-07-02T21:28:36.221Z,20.50
2018-07-02T21:31:04.311Z,20.40
2018-07-02T21:33:32.694Z,20.30
2018-07-02T21:36:00.732Z,20.20
2018-07-02T21:38:28.818Z,20.20
2018-07-02T21:40:56.895Z,20.10
2018-07-02T21:43:24.981Z,20.00
2018-07-02T21:45:53.115Z,19.90
2018-07-02T21:48:21.775Z,19.90
2018-07-02T21:50:49.916Z,19.80
2018-07-02T21:53:18.111Z,19.70
2018-07-02T21:55:46.190Z,19.70
2018-07-02T21:58:14.251Z,19.60
2018-07-02T22:00:45.045Z,19.60
2018-07-02T22:03:13.137Z,19.50
2018-07-02T22:05:41.255Z,19.50
2018-07-02T22:08:10.118Z,19.50
2018-07-02T22:10:38.179Z,19.40
2018-07-02T22:13:06.359Z,19.30
2018-07-02T22:15:34.754Z,19.20
2018-07-02T22:18:03.023Z,19.20
2018-07-02T22:20:31.103Z,19.10
2018-07-02T22:22:59.197Z,19.10
2018-07-02T22:25:27.292Z,19.00
2018-07-02T22:27:55.496Z,19.00
2018-07-02T22:30:23.632Z,19.00
2018-07-02T22:32:51.739Z,18.90
2018-07-02T22:35:19.790Z,18.80
2018-07-02T22:37:47.862Z,18.70
2018-07-02T22:40:15.923Z,18.70
2018-07-02T22:42:43.983Z,18.60
2018-07-02T22:45:12.054Z,18.60
2018-07-02T22:47:40.117Z,18.50
2018-07-02T22:50:08.166Z,18.40
2018-07-02T22:52:36.278Z,18.40
2018-07-02T22:55:04.370Z,18.30
2018-07-02T22:57:32.438Z,18.30
2018-07-02T23:00:00.507Z,18.20
2018-07-02T23:02:28.580Z,18.20
2018-07-02T23:04:56.671Z,18.10
2018-07-02T23:07:24.759Z,18.10
2018-07-02T23:09:52.818Z,18.00
2018-07-02T23:12:20.894Z,17.90
2018-07-02T23:14:48.964Z,17.90
2018-07-02T23:17:17.016Z,17.90
2018-07-02T23:19:45.087Z,17.80
2018-07-02T23:22:13.295Z,17.80
2018-07-02T23:24:41.369Z,17.80
2018-07-02T23:27:09.426Z,17.70
2018-07-02T23:29:37.530Z,17.70
2018-07-02T23:32:05.649Z,17.60
2018-07-02T23:34:33.746Z,17.60
2018-07-02T23:37:01.846Z,17.60
2018-07-02T23:39:29.916Z,17.50
2018-07-02T23:41:57.988Z,17.50
2018-07-02T23:44:26.061Z,17.50
2018-07-02T23:46:54.158Z,17.40
2018-07-02T23:49:22.229Z,17.40
2018-07-02T23:51:50.302Z,17.40
2018-07-02T23:54:18.430Z,17.30
2018-07-02T23:56:46.534Z,17.30
2018-07-02T23:59:14.590Z,17.20
